createdAt,value
2018-10-02T00:02:00.391Z,101210.00
2018-10-02T00:04:29.767Z,101212.00
2018-10-02T00:06:59.064Z,101210.00
2018-10-02T00:09:28.345Z,101219.00
2018-10-02T00:12:03.012Z,101203.00
2018-10-02T00:14:32.564Z,101197.00
2018-10-02T00:17:01.802Z,101188.00
2018-10-02T00:19:31.641Z,101183.00
2018-10-02T00:22:00.925Z,101183.00
2018-10-02T00:24:30.271Z,101178.00
2018-10-02T00:26:59.666Z,101187.00
2018-10-02T00:29:29.003Z,101178.00
2018-10-02T00:31:58.507Z,101190.00
2018-10-02T00:34:27.793Z,101188.00
2018-10-02T00:36:57.667Z,101182.00
2018-10-02T00:39:27.041Z,101185.00
2018-10-02T00:42:02.338Z,101183.00
2018-10-02T00:44:31.664Z,101184.00
2018-10-02T00:47:00.932Z,101185.00
2018-10-02T00:49:30.272Z,101192.00
2018-10-02T00:51:59.600Z,101180.00
2018-10-02T00:54:28.844Z,101190.00
2018-10-02T00:56:58.981Z,101188.00
2018-10-02T00:59:28.275Z,101176.00
2018-10-02T01:01:57.580Z,101176.00
2018-10-02T01:04:26.843Z,101177.00
2018-10-02T01:06:56.270Z,101174.00
2018-10-02T01:09:25.628Z,101187.00
2018-10-02T01:11:55.023Z,101184.00
2018-10-02T01:14:24.365Z,101184.00
2018-10-02T01:16:53.690Z,101182.00
2018-10-02T01:19:23.013Z,101179.00
2018-10-02T01:21:52.401Z,101171.00
2018-10-02T01:24:21.751Z,101168.00
2018-10-02T01:26:51.051Z,101171.00
2018-10-02T01:29:20.315Z,101164.00
2018-10-02T01:31:49.690Z,101161.00
2018-10-02T01:34:19.050Z,101160.00
2018-10-02T01:36:48.380Z,101151.00
2018-10-02T01:39:17.703Z,101159.00
2018-10-02T01:41:46.988Z,101152.00
2018-10-02T01:44:16.319Z,101149.00
2018-10-02T01:46:45.609Z,101128.00
2018-10-02T01:49:14.896Z,101135.00
2018-10-02T01:51:44.562Z,101141.00
2018-10-02T01:54:13.909Z,101123.00
2018-10-02T01:56:43.416Z,101139.00
2018-10-02T01:59:12.752Z,101136.00
2018-10-02T02:01:42.075Z,101126.00
2018-10-02T02:04:11.618Z,101134.00
2018-10-02T02:06:40.871Z,101125.00
2018-10-02T02:09:10.276Z,101119.00
2018-10-02T02:11:40.604Z,101124.00
2018-10-02T02:14:09.944Z,101121.00
2018-10-02T02:16:39.314Z,101121.00
2018-10-02T02:19:08.657Z,101114.00
2018-10-02T02:21:37.924Z,101116.00
2018-10-02T02:24:07.267Z,101090.00
2018-10-02T02:26:36.587Z,101091.00
2018-10-02T02:29:05.903Z,101099.00
2018-10-02T02:31:35.192Z,101095.00
2018-10-02T02:34:04.464Z,101089.00
2018-10-02T02:36:33.821Z,101082.00
2018-10-02T02:39:03.195Z,101074.00
2018-10-02T02:41:32.470Z,101080.00
2018-10-02T02:44:01.733Z,101074.00
2018-10-02T02:46:32.021Z,101070.00
2018-10-02T02:49:06.397Z,101065.00
2018-10-02T02:51:35.718Z,101069.00
2018-10-02T02:54:05.042Z,101050.00
2018-10-02T02:56:34.328Z,101047.00
2018-10-02T02:59:03.607Z,101050.00
2018-10-02T03:01:33.007Z,101043.00
2018-10-02T03:04:02.283Z,101044.00
2018-10-02T03:06:31.648Z,101035.00
2018-10-02T03:09:00.885Z,101032.00
2018-10-02T03:11:30.159Z,101025.00
2018-10-02T03:13:59.519Z,101032.00
2018-10-02T03:16:28.777Z,101025.00
2018-10-02T03:18:58.123Z,101022.00
2018-10-02T03:21:27.434Z,101017.00
2018-10-02T03:23:56.941Z,101025.00
2018-10-02T03:26:26.216Z,101028.00
2018-10-02T03:28:55.531Z,101018.00
2018-10-02T03:31:24.895Z,101016.00
2018-10-02T03:33:54.240Z,101007.00
2018-10-02T03:36:23.530Z,101010.00
2018-10-02T03:38:52.846Z,101009.00
2018-10-02T03:41:22.135Z,100997.00
2018-10-02T03:43:51.398Z,101003.00
2018-10-02T03:46:20.722Z,101011.00
2018-10-02T03:48:50.147Z,101012.00
2018-10-02T03:51:19.445Z,100994.00
2018-10-02T03:53:48.914Z,101002.00
2018-10-02T03:56:18.200Z,100988.00
2018-10-02T03:58:47.570Z,100976.00
2018-10-02T04:01:16.944Z,100964.00
2018-10-02T04:03:46.281Z,100971.00
2018-10-02T04:06:15.537Z,100962.00
2018-10-02T04:08:44.885Z,100969.00
2018-10-02T04:11:14.212Z,100959.00
2018-10-02T04:13:43.562Z,100953.00
2018-10-02T04:16:13.002Z,100953.00
2018-10-02T04:18:42.363Z,100942.00
2018-10-02T04:21:11.674Z,100929.00
2018-10-02T04:23:40.960Z,100939.00
2018-10-02T04:26:10.713Z,100939.00
2018-10-02T04:28:40.009Z,100944.00
2018-10-02T04:31:09.728Z,100945.00
2018-10-02T04:33:39.193Z,100933.00
2018-10-02T04:36:08.503Z,100916.00
2018-10-02T04:38:40.124Z,100933.00
2018-10-02T04:41:09.538Z,100934.00
2018-10-02T04:43:38.831Z,100925.00
2018-10-02T04:46:08.155Z,100932.00
2018-10-02T04:48:37.549Z,100924.00
2018-10-02T04:51:06.951Z,100921.00
2018-10-02T04:53:36.221Z,100923.00
2018-10-02T04:56:05.652Z,100923.00
2018-10-02T04:58:34.947Z,100920.00
2018-10-02T05:01:04.215Z,100926.00
2018-10-02T05:03:33.607Z,100921.00
2018-10-02T05:06:03.122Z,100927.00
2018-10-02T05:08:32.449Z,100929.00
2018-10-02T05:11:01.749Z,100927.00
2018-10-02T05:13:31.033Z,100926.00
2018-10-02T05:16:03.210Z,100926.00
2018-10-02T05:18:32.447Z,100919.00
2018-10-02T05:21:01.772Z,100913.00
2018-10-02T05:23:31.057Z,100914.00
2018-10-02T05:26:00.351Z,100919.00
2018-10-02T05:28:29.637Z,100908.00
2018-10-02T05:30:58.917Z,100910.00
2018-10-02T05:33:28.224Z,100918.00
2018-10-02T05:35:57.577Z,100910.00
2018-10-02T05:38:27.524Z,100897.00
2018-10-02T05:40:57.071Z,100893.00
2018-10-02T05:43:26.609Z,100897.00
2018-10-02T05:45:55.922Z,100895.00
2018-10-02T05:48:25.270Z,100897.00
2018-10-02T05:50:54.600Z,100895.00
2018-10-02T05:53:23.958Z,100890.00
2018-10-02T05:55:53.407Z,100889.00
2018-10-02T05:58:22.754Z,100887.00
2018-10-02T06:00:52.221Z,100887.00
2018-10-02T06:03:21.759Z,100892.00
2018-10-02T06:05:51.028Z,100884.00
2018-10-02T06:08:20.439Z,100875.00
2018-10-02T06:10:49.777Z,100876.00
2018-10-02T06:13:19.109Z,100874.00
2018-10-02T06:15:48.458Z,100869.00
2018-10-02T06:18:17.798Z,100862.00
2018-10-02T06:20:47.137Z,100861.00
2018-10-02T06:23:19.559Z,100848.00
2018-10-02T06:25:48.869Z,100847.00
2018-10-02T06:28:18.209Z,100844.00
2018-10-02T06:30:48.125Z,100833.00
2018-10-02T06:33:17.444Z,100832.00
2018-10-02T06:35:46.804Z,100824.00
2018-10-02T06:38:16.290Z,100831.00
2018-10-02T06:40:45.450Z,100817.00
2018-10-02T06:43:14.790Z,100812.00
2018-10-02T06:45:44.125Z,100812.00
2018-10-02T06:48:13.447Z,100803.00
2018-10-02T06:50:42.801Z,100795.00
2018-10-02T06:53:12.111Z,100798.00
2018-10-02T06:55:41.406Z,100798.00
2018-10-02T06:58:10.819Z,100800.00
2018-10-02T07:00:40.238Z,100793.00
2018-10-02T07:03:09.597Z,100792.00
2018-10-02T07:05:39.056Z,100794.00
2018-10-02T07:08:08.317Z,100790.00
2018-10-02T07:10:37.590Z,100790.00
2018-10-02T07:13:07.254Z,100793.00
2018-10-02T07:15:36.542Z,100787.00
2018-10-02T07:18:07.983Z,100779.00
2018-10-02T07:20:37.871Z,100771.00
2018-10-02T07:23:07.419Z,100770.00
2018-10-02T07:25:36.874Z,100769.00
2018-10-02T07:28:07.053Z,100760.00
2018-10-02T07:30:36.340Z,100766.00
2018-10-02T07:33:05.722Z,100754.00
2018-10-02T07:35:35.047Z,100746.00
2018-10-02T07:38:04.343Z,100747.00
2018-10-02T07:40:33.669Z,100750.00
2018-10-02T07:43:03.033Z,100744.00
2018-10-02T07:45:32.586Z,100741.00
2018-10-02T07:48:03.052Z,100734.00
2018-10-02T07:50:36.588Z,100740.00
2018-10-02T07:53:06.027Z,100724.00
2018-10-02T07:55:36.373Z,100727.00
2018-10-02T07:58:05.724Z,100709.00
2018-10-02T08:00:37.009Z,100714.00
2018-10-02T08:03:06.458Z,100710.00
2018-10-02T08:05:36.929Z,100700.00
2018-10-02T08:08:06.246Z,100716.00
2018-10-02T08:10:35.579Z,100711.00
2018-10-02T08:13:04.888Z,100718.00
2018-10-02T08:15:34.172Z,100708.00
2018-10-02T08:18:03.512Z,100709.00
2018-10-02T08:20:33.054Z,100715.00
2018-10-02T08:23:02.259Z,100704.00
2018-10-02T08:25:31.562Z,100699.00
2018-10-02T08:28:01.959Z,100697.00
2018-10-02T08:30:31.277Z,100682.00
2018-10-02T08:33:00.559Z,100668.00
2018-10-02T08:35:29.895Z,100681.00
2018-10-02T08:37:59.474Z,100668.00
2018-10-02T08:40:28.869Z,100682.00
2018-10-02T08:42:58.185Z,100673.00
2018-10-02T08:45:27.605Z,100652.00
2018-10-02T08:47:56.965Z,100674.00
2018-10-02T08:50:26.309Z,100669.00
2018-10-02T08:52:55.623Z,100661.00
2018-10-02T08:55:24.968Z,100668.00
2018-10-02T08:57:54.241Z,100655.00
2018-10-02T09:00:23.581Z,100646.00
2018-10-02T09:02:54.991Z,100655.00
2018-10-02T09:05:24.307Z,100644.00
2018-10-02T09:07:53.959Z,100649.00
2018-10-02T09:10:23.321Z,100655.00
2018-10-02T09:12:52.859Z,100655.00
2018-10-02T09:15:22.287Z,100660.00
2018-10-02T09:17:51.570Z,100664.00
2018-10-02T09:20:20.935Z,100664.00
2018-10-02T09:22:53.393Z,100649.00
2018-10-02T09:25:22.783Z,100642.00
2018-10-02T09:27:52.073Z,100644.00
2018-10-02T09:30:26.573Z,100630.00
2018-10-02T09:33:01.135Z,100621.00
2018-10-02T09:35:35.709Z,100631.00
2018-10-02T09:38:10.195Z,100625.00
2018-10-02T09:40:44.908Z,100633.00
2018-10-02T09:43:19.463Z,100622.00
2018-10-02T09:45:48.867Z,100632.00
2018-10-02T09:48:18.406Z,100617.00
2018-10-02T09:50:48.127Z,100619.00
2018-10-02T09:53:17.588Z,100607.00
2018-10-02T09:55:46.923Z,100610.00
2018-10-02T09:58:16.226Z,100605.00
2018-10-02T10:00:50.781Z,100604.00
2018-10-02T10:03:20.210Z,100601.00
2018-10-02T10:05:49.445Z,100599.00
2018-10-02T10:08:18.909Z,100600.00
2018-10-02T10:10:48.212Z,100596.00
2018-10-02T10:13:17.635Z,100611.00
2018-10-02T10:15:47.985Z,100613.00
2018-10-02T10:18:17.564Z,100621.00
2018-10-02T10:20:46.797Z,100623.00
2018-10-02T10:23:16.277Z,100617.00
2018-10-02T10:25:45.725Z,100613.00
2018-10-02T10:28:15.064Z,100610.00
2018-10-02T10:30:44.338Z,100598.00
2018-10-02T10:33:13.688Z,100604.00
2018-10-02T10:35:42.950Z,100615.00
2018-10-02T10:38:12.375Z,100602.00
2018-10-02T10:40:42.141Z,100598.00
2018-10-02T10:43:11.359Z,100586.00
2018-10-02T10:45:40.675Z,100588.00
2018-10-02T10:48:10.073Z,100592.00
2018-10-02T10:50:43.501Z,100597.00
2018-10-02T10:53:12.901Z,100591.00
2018-10-02T10:55:42.181Z,100593.00
2018-10-02T10:58:11.501Z,100566.00
2018-10-02T11:00:40.803Z,100570.00
2018-10-02T11:03:10.118Z,100575.00
2018-10-02T11:05:39.387Z,100571.00
2018-10-02T11:08:08.685Z,100571.00
2018-10-02T11:10:38.020Z,100567.00
2018-10-02T11:13:07.322Z,100563.00
2018-10-02T11:15:38.131Z,100560.00
2018-10-02T11:18:07.389Z,100564.00
2018-10-02T11:20:37.939Z,100556.00
2018-10-02T11:23:07.721Z,100557.00
2018-10-02T11:25:37.023Z,100546.00
2018-10-02T11:28:06.497Z,100547.00
2018-10-02T11:30:35.823Z,100538.00
2018-10-02T11:33:05.327Z,100548.00
2018-10-02T11:35:34.864Z,100549.00
2018-10-02T11:38:04.017Z,100541.00
2018-10-02T11:40:33.239Z,100519.00
2018-10-02T11:43:02.534Z,100523.00
2018-10-02T11:45:31.872Z,100519.00
2018-10-02T11:48:01.158Z,100519.00
2018-10-02T11:50:30.566Z,100525.00
2018-10-02T11:52:59.913Z,100532.00
2018-10-02T11:55:29.139Z,100527.00
2018-10-02T11:57:58.497Z,100517.00
2018-10-02T12:00:27.956Z,100514.00
2018-10-02T12:02:57.228Z,100504.00
2018-10-02T12:05:26.572Z,100514.00
2018-10-02T12:07:57.906Z,100515.00
2018-10-02T12:10:27.372Z,100519.00
2018-10-02T12:12:56.970Z,100532.00
2018-10-02T12:15:26.380Z,100510.00
2018-10-02T12:18:00.117Z,100487.00
2018-10-02T12:20:29.608Z,100511.00
2018-10-02T12:22:59.099Z,100503.00
2018-10-02T12:25:32.681Z,100502.00
2018-10-02T12:28:02.156Z,100495.00
2018-10-02T12:30:31.648Z,100506.00
2018-10-02T12:33:01.214Z,100497.00
2018-10-02T12:35:30.725Z,100497.00
2018-10-02T12:38:00.028Z,100494.00
2018-10-02T12:40:29.447Z,100496.00
2018-10-02T12:42:58.829Z,100494.00
2018-10-02T12:45:28.108Z,100493.00
2018-10-02T12:47:57.634Z,100501.00
2018-10-02T12:50:27.021Z,100505.00
2018-10-02T12:52:56.526Z,100489.00
2018-10-02T12:55:26.385Z,100496.00
2018-10-02T12:57:55.829Z,100495.00
2018-10-02T13:00:25.987Z,100504.00
2018-10-02T13:02:55.305Z,100496.00
2018-10-02T13:05:28.487Z,100492.00
2018-10-02T13:07:57.860Z,100481.00
2018-10-02T13:10:29.213Z,100485.00
2018-10-02T13:12:58.642Z,100481.00
2018-10-02T13:15:27.954Z,100484.00
2018-10-02T13:17:57.227Z,100494.00
2018-10-02T13:20:26.551Z,100503.00
2018-10-02T13:22:55.878Z,100485.00
2018-10-02T13:25:25.287Z,100476.00
2018-10-02T13:27:54.635Z,100489.00
2018-10-02T13:30:23.918Z,100497.00
2018-10-02T13:32:53.343Z,100493.00
2018-10-02T13:35:22.733Z,100484.00
2018-10-02T13:37:52.180Z,100494.00
2018-10-02T13:40:22.772Z,100482.00
2018-10-02T13:42:52.073Z,100476.00
2018-10-02T13:45:21.382Z,100495.00
2018-10-02T13:47:50.700Z,100483.00
2018-10-02T13:50:20.037Z,100488.00
2018-10-02T13:52:49.373Z,100487.00
2018-10-02T13:55:18.817Z,100482.00
2018-10-02T13:57:48.444Z,100490.00
2018-10-02T14:00:17.719Z,100489.00
2018-10-02T14:02:47.050Z,100485.00
2018-10-02T14:05:16.437Z,100497.00
2018-10-02T14:07:45.835Z,100494.00
2018-10-02T14:10:15.343Z,100489.00
2018-10-02T14:12:44.713Z,100491.00
2018-10-02T14:15:14.122Z,100487.00
2018-10-02T14:17:43.427Z,100498.00
2018-10-02T14:20:12.758Z,100492.00
2018-10-02T14:22:42.063Z,100494.00
2018-10-02T14:25:11.467Z,100491.00
2018-10-02T14:27:40.759Z,100498.00
2018-10-02T14:30:10.049Z,100491.00
2018-10-02T14:32:39.357Z,100495.00
2018-10-02T14:35:09.761Z,100502.00
2018-10-02T14:37:39.075Z,100502.00
2018-10-02T14:40:08.405Z,100501.00
2018-10-02T14:42:38.756Z,100494.00
2018-10-02T14:45:08.145Z,100496.00
2018-10-02T14:47:37.464Z,100500.00
2018-10-02T14:50:06.923Z,100507.00
2018-10-02T14:52:36.248Z,100507.00
2018-10-02T14:55:05.679Z,100514.00
2018-10-02T14:57:34.929Z,100526.00
2018-10-02T15:00:04.655Z,100522.00
2018-10-02T15:02:33.956Z,100527.00
2018-10-02T15:05:03.229Z,100523.00
2018-10-02T15:07:33.680Z,100530.00
2018-10-02T15:10:03.089Z,100534.00
2018-10-02T15:12:32.389Z,100520.00
2018-10-02T15:15:02.103Z,100521.00
2018-10-02T15:17:31.440Z,100514.00
2018-10-02T15:20:00.710Z,100509.00
2018-10-02T15:22:30.556Z,100501.00
2018-10-02T15:24:59.967Z,100495.00
2018-10-02T15:27:29.393Z,100505.00
2018-10-02T15:29:58.862Z,100518.00
2018-10-02T15:32:28.160Z,100526.00
2018-10-02T15:34:57.572Z,100519.00
2018-10-02T15:37:27.994Z,100528.00
2018-10-02T15:39:57.777Z,100535.00
2018-10-02T15:42:27.116Z,100539.00
2018-10-02T15:44:56.416Z,100544.00
2018-10-02T15:47:25.804Z,100537.00
2018-10-02T15:49:55.160Z,100543.00
2018-10-02T15:52:31.101Z,100545.00
2018-10-02T15:55:00.378Z,100547.00
2018-10-02T15:57:29.670Z,100551.00
2018-10-02T15:59:58.981Z,100549.00
2018-10-02T16:02:28.204Z,100562.00
2018-10-02T16:04:57.532Z,100572.00
2018-10-02T16:07:26.789Z,100566.00
2018-10-02T16:09:56.040Z,100558.00
2018-10-02T16:12:25.299Z,100563.00
2018-10-02T16:14:54.575Z,100568.00
2018-10-02T16:17:23.834Z,100579.00
2018-10-02T16:19:53.170Z,100587.00
2018-10-02T16:22:22.449Z,100580.00
2018-10-02T16:24:51.920Z,100587.00
2018-10-02T16:27:21.174Z,100591.00
2018-10-02T16:29:50.481Z,100583.00
2018-10-02T16:32:19.784Z,100596.00
2018-10-02T16:34:49.294Z,100587.00
2018-10-02T16:37:18.373Z,100582.00
2018-10-02T16:39:47.680Z,100592.00
2018-10-02T16:42:16.975Z,100590.00
2018-10-02T16:44:46.276Z,100596.00
2018-10-02T16:47:15.836Z,100596.00
2018-10-02T16:49:45.049Z,100595.00
2018-10-02T16:52:14.324Z,100612.00
2018-10-02T16:54:43.638Z,100609.00
2018-10-02T16:57:13.104Z,100614.00
2018-10-02T16:59:42.316Z,100618.00
2018-10-02T17:02:11.607Z,100616.00
2018-10-02T17:04:40.924Z,100632.00
2018-10-02T17:07:10.269Z,100635.00
2018-10-02T17:09:39.613Z,100621.00
2018-10-02T17:12:08.912Z,100644.00
2018-10-02T17:14:38.261Z,100642.00
2018-10-02T17:17:07.576Z,100649.00
2018-10-02T17:19:36.850Z,100655.00
2018-10-02T17:22:06.193Z,100649.00
2018-10-02T17:24:35.607Z,100653.00
2018-10-02T17:27:05.033Z,100655.00
2018-10-02T17:29:34.358Z,100660.00
2018-10-02T17:32:03.680Z,100678.00
2018-10-02T17:34:32.999Z,100669.00
2018-10-02T17:37:02.374Z,100665.00
2018-10-02T17:39:31.657Z,100659.00
2018-10-02T17:42:00.975Z,100675.00
2018-10-02T17:44:30.310Z,100678.00
2018-10-02T17:46:59.666Z,100689.00
2018-10-02T17:49:29.072Z,100686.00
2018-10-02T17:51:58.956Z,100681.00
2018-10-02T17:54:28.318Z,100684.00
2018-10-02T17:56:57.735Z,100684.00
2018-10-02T17:59:27.032Z,100688.00
2018-10-02T18:01:56.355Z,100681.00
2018-10-02T18:04:25.610Z,100697.00
2018-10-02T18:06:54.952Z,100690.00
2018-10-02T18:09:24.351Z,100690.00
2018-10-02T18:11:53.720Z,100700.00
2018-10-02T18:14:23.060Z,100692.00
2018-10-02T18:16:52.340Z,100701.00
2018-10-02T18:19:21.825Z,100709.00
2018-10-02T18:21:51.062Z,100693.00
2018-10-02T18:24:21.454Z,100697.00
2018-10-02T18:26:50.741Z,100694.00
2018-10-02T18:29:20.033Z,100697.00
2018-10-02T18:31:49.557Z,100705.00
2018-10-02T18:34:18.831Z,100704.00
2018-10-02T18:36:48.093Z,100709.00
2018-10-02T18:39:17.465Z,100711.00
2018-10-02T18:41:47.800Z,100710.00
2018-10-02T18:44:17.106Z,100714.00
2018-10-02T18:46:46.386Z,100715.00
2018-10-02T18:49:15.717Z,100715.00
2018-10-02T18:51:45.046Z,100725.00
2018-10-02T18:54:14.401Z,100729.00
2018-10-02T18:56:45.570Z,100730.00
2018-10-02T18:59:14.904Z,100731.00
2018-10-02T19:01:44.225Z,100744.00
2018-10-02T19:04:13.598Z,100733.00
2018-10-02T19:06:43.059Z,100731.00
2018-10-02T19:09:12.815Z,100727.00
2018-10-02T19:11:47.417Z,100734.00
2018-10-02T19:14:17.649Z,100748.00
2018-10-02T19:16:47.164Z,100750.00
2018-10-02T19:19:21.584Z,100741.00
2018-10-02T19:21:50.868Z,100746.00
2018-10-02T19:24:20.147Z,100745.00
2018-10-02T19:26:49.562Z,100755.00
2018-10-02T19:29:18.801Z,100758.00
2018-10-02T19:31:53.438Z,100752.00
2018-10-02T19:34:23.126Z,100769.00
2018-10-02T19:36:52.559Z,100771.00
2018-10-02T19:39:23.505Z,100768.00
2018-10-02T19:41:53.046Z,100767.00
2018-10-02T19:44:22.416Z,100781.00
2018-10-02T19:46:58.125Z,100779.00
2018-10-02T19:49:29.885Z,100783.00
2018-10-02T19:52:14.622Z,100780.00
2018-10-02T19:54:44.465Z,100795.00
2018-10-02T19:57:16.005Z,100787.00
2018-10-02T19:59:45.299Z,100788.00
2018-10-02T20:02:14.676Z,100786.00
2018-10-02T20:04:45.787Z,100794.00
2018-10-02T20:07:15.179Z,100794.00
2018-10-02T20:09:44.458Z,100785.00
2018-10-02T20:12:14.154Z,100786.00
2018-10-02T20:14:43.563Z,100794.00
2018-10-02T20:17:13.070Z,100787.00
2018-10-02T20:19:42.402Z,100796.00
2018-10-02T20:22:12.125Z,100797.00
2018-10-02T20:24:41.759Z,100803.00
2018-10-02T20:27:11.048Z,100800.00
2018-10-02T20:29:40.352Z,100802.00
2018-10-02T20:32:09.320Z,100813.00
2018-10-02T20:34:38.619Z,100808.00
2018-10-02T20:37:08.328Z,100809.00
2018-10-02T20:39:37.985Z,100818.00
2018-10-02T20:42:07.509Z,100818.00
2018-10-02T20:44:36.859Z,100814.00
2018-10-02T20:47:06.198Z,100824.00
2018-10-02T20:49:35.536Z,100812.00
2018-10-02T20:52:04.964Z,100821.00
2018-10-02T20:54:34.344Z,100824.00
2018-10-02T20:57:03.593Z,100839.00
2018-10-02T20:59:32.876Z,100836.00
2018-10-02T21:02:02.201Z,100825.00
2018-10-02T21:04:31.881Z,100837.00
2018-10-02T21:07:03.197Z,100825.00
2018-10-02T21:09:32.490Z,100830.00
2018-10-02T21:12:01.773Z,100850.00
2018-10-02T21:14:31.074Z,100837.00
2018-10-02T21:17:00.353Z,100827.00
2018-10-02T21:19:29.630Z,100825.00
2018-10-02T21:21:58.956Z,100829.00
2018-10-02T21:24:28.213Z,100834.00
2018-10-02T21:26:57.443Z,100846.00
2018-10-02T21:29:26.736Z,100831.00
2018-10-02T21:31:56.066Z,100856.00
2018-10-02T21:34:25.425Z,100849.00
2018-10-02T21:36:54.729Z,100850.00
2018-10-02T21:39:23.989Z,100845.00
2018-10-02T21:41:53.341Z,100843.00
2018-10-02T21:44:22.583Z,100849.00
2018-10-02T21:46:51.869Z,100843.00
2018-10-02T21:49:23.170Z,100831.00
2018-10-02T21:51:52.584Z,100830.00
2018-10-02T21:54:21.852Z,100844.00
2018-10-02T21:56:51.106Z,100846.00
2018-10-02T21:59:20.424Z,100856.00
2018-10-02T22:01:49.716Z,100856.00
2018-10-02T22:04:19.037Z,100844.00
2018-10-02T22:06:48.347Z,100839.00
2018-10-02T22:09:19.814Z,100862.00
2018-10-02T22:11:49.101Z,100858.00
2018-10-02T22:14:18.428Z,100848.00
2018-10-02T22:16:47.708Z,100847.00
2018-10-02T22:19:16.958Z,100865.00
2018-10-02T22:21:46.286Z,100855.00
2018-10-02T22:24:15.629Z,100868.00
2018-10-02T22:26:44.881Z,100867.00
2018-10-02T22:29:14.181Z,100871.00
2018-10-02T22:31:43.549Z,100875.00
2018-10-02T22:34:12.812Z,100867.00
2018-10-02T22:36:42.101Z,100875.00
2018-10-02T22:39:11.822Z,100870.00
2018-10-02T22:41:41.189Z,100864.00
2018-10-02T22:44:10.768Z,100871.00
2018-10-02T22:46:40.105Z,100863.00
2018-10-02T22:49:09.358Z,100856.00
2018-10-02T22:51:40.757Z,100865.00
2018-10-02T22:54:10.013Z,100865.00
2018-10-02T22:56:39.311Z,100869.00
2018-10-02T22:59:08.611Z,100868.00
2018-10-02T23:01:37.946Z,100878.00
2018-10-02T23:04:07.430Z,100892.00
2018-10-02T23:06:36.725Z,100890.00
2018-10-02T23:09:09.597Z,100887.00
2018-10-02T23:11:38.884Z,100890.00
2018-10-02T23:14:09.040Z,100893.00
2018-10-02T23:16:38.403Z,100889.00
2018-10-02T23:19:07.731Z,100885.00
2018-10-02T23:21:38.968Z,100887.00
2018-10-02T23:24:08.626Z,100899.00
2018-10-02T23:26:37.884Z,100903.00
2018-10-02T23:29:07.160Z,100893.00
2018-10-02T23:31:36.425Z,100892.00
2018-10-02T23:34:05.751Z,100895.00
2018-10-02T23:36:35.057Z,100893.00
2018-10-02T23:39:05.662Z,100900.00
2018-10-02T23:41:34.971Z,100888.00
2018-10-02T23:44:04.407Z,100896.00
2018-10-02T23:46:33.689Z,100891.00
2018-10-02T23:49:02.965Z,100895.00
2018-10-02T23:51:32.222Z,100890.00
2018-10-02T23:54:03.623Z,100901.00
2018-10-02T23:56:33.101Z,100896.00
2018-10-02T23:59:02.371Z,100888.00
